Time;durP1;ratioP1;P1;durP2;ratioP2;P2;SDS_P1;SDS_P2;PMS_P1;PMS_P2;Temp;Humidity;BMP_temperature;BMP_pressure;BME280_temperature;BME280_humidity;BME280_pressure;Samples;Min_cycle;Max_cycle;Signal;HPM_P1;HPM_P2
2022/08/20 00:02:19;;;;;;;7.50;5.45;;;22.40;99.90;;;;;;5053926;28;20025;-63
2022/08/20 00:04:45;;;;;;;10.75;5.63;;;22.40;99.90;;;;;;5055005;28;20020;-62
2022/08/20 00:07:12;;;;;;;8.73;5.32;;;22.40;99.90;;;;;;5046736;28;20042;-63
2022/08/20 00:09:38;;;;;;;8.02;5.25;;;22.40;99.90;;;;;;5034880;28;20387;-62
2022/08/20 00:12:05;;;;;;;6.40;5.63;;;22.40;99.90;;;;;;5035251;28;20030;-63
2022/08/20 00:14:31;;;;;;;6.93;4.97;;;22.40;99.90;;;;;;5033645;28;20105;-63
2022/08/20 00:16:58;;;;;;;8.15;4.57;;;22.40;99.90;;;;;;5039931;28;20029;-63
2022/08/20 00:19:23;;;;;;;12.55;4.85;;;22.40;99.90;;;;;;5054739;28;20048;-63
2022/08/20 00:21:49;;;;;;;9.00;4.30;;;22.40;99.80;;;;;;5054360;28;20382;-62
2022/08/20 00:24:14;;;;;;;9.70;4.32;;;22.30;99.70;;;;;;5054797;28;20382;-63
2022/08/20 00:26:40;;;;;;;10.73;4.57;;;22.30;99.60;;;;;;5051745;28;20114;-63
2022/08/20 00:29:06;;;;;;;10.63;4.13;;;22.30;99.60;;;;;;5034780;28;20147;-63
2022/08/20 00:31:31;;;;;;;12.15;4.32;;;22.20;99.40;;;;;;5051178;28;20033;-63
2022/08/20 00:33:57;;;;;;;9.68;3.50;;;22.30;99.30;;;;;;5054540;28;20492;-63
2022/08/20 00:36:23;;;;;;;10.13;3.35;;;22.20;99.10;;;;;;5054331;28;20040;-63
2022/08/20 00:38:48;;;;;;;10.60;3.58;;;22.20;99.20;;;;;;5053924;28;20068;-63
2022/08/20 00:41:19;;;;;;;9.57;3.45;;;22.20;99.20;;;;;;5040173;28;20029;-62
2022/08/20 00:43:49;;;;;;;12.02;3.92;;;22.20;99.10;;;;;;5035344;28;20037;-63
2022/08/20 00:46:24;;;;;;;12.43;3.92;;;22.10;99.20;;;;;;5034244;28;20048;-62
2022/08/20 00:48:54;;;;;;;9.05;3.13;;;22.10;99.20;;;;;;5034422;28;20032;-63
2022/08/20 00:51:37;;;;;;;9.95;3.50;;;22.10;99.10;;;;;;5045166;28;20098;-63
2022/08/20 00:54:22;;;;;;;;;;;22.00;99.10;;;;;;5054379;28;20052;-63
2022/08/20 00:56:58;;;;;;;11.45;3.40;;;22.00;99.10;;;;;;5053138;28;19905;-63
2022/08/20 00:59:28;;;;;;;10.55;3.88;;;22.00;99.10;;;;;;5044772;28;20025;-63
2022/08/20 01:01:56;;;;;;;7.03;3.88;;;22.00;99.00;;;;;;5046184;28;20434;-63
2022/08/20 01:04:26;;;;;;;11.10;3.70;;;22.00;99.00;;;;;;5051968;28;20527;-63
2022/08/20 01:06:52;;;;;;;12.43;3.50;;;22.00;99.10;;;;;;5053234;28;20632;-63
2022/08/20 01:09:17;;;;;;;10.77;4.05;;;22.00;99.10;;;;;;5054031;28;20032;-63
2022/08/20 01:11:43;;;;;;;11.50;4.40;;;21.90;99.10;;;;;;5041699;28;20078;-63
2022/08/20 01:14:54;;;;;;;9.43;4.18;;;21.80;99.20;;;;;;5032689;28;20020;-63
2022/08/20 01:17:07;;;;;;;9.35;4.15;;;21.80;99.10;;;;;;5023042;28;20082;-63
2022/08/20 01:19:56;;;;;;;10.68;3.55;;;21.90;99.00;;;;;;5033637;28;20056;-63
2022/08/20 01:23:31;;;;;;;10.50;4.05;;;21.80;98.80;;;;;;5048195;28;20509;-69
2022/08/20 01:26:03;;;;;;;9.85;4.35;;;21.70;99.00;;;;;;5040112;28;20035;-63
2022/08/20 01:28:45;;;;;;;11.75;4.15;;;21.70;99.00;;;;;;5053476;28;20033;-62
2022/08/20 01:31:17;;;;;;;12.93;4.38;;;21.70;98.80;;;;;;5047294;28;20021;-63
2022/08/20 01:33:43;;;;;;;12.00;4.05;;;21.70;98.70;;;;;;5033042;28;20033;-63
2022/08/20 01:36:11;;;;;;;12.73;4.70;;;21.60;98.80;;;;;;5033486;28;20025;-63
2022/08/20 01:38:37;;;;;;;10.43;4.10;;;21.60;98.80;;;;;;5033419;28;20467;-63
2022/08/20 01:41:20;;;;;;;15.05;4.32;;;21.60;98.80;;;;;;5037431;28;20048;-63
2022/08/20 01:43:48;;;;;;;11.63;3.80;;;21.50;98.90;;;;;;5053155;28;20103;-63
2022/08/20 01:46:14;;;;;;;17.10;4.57;;;21.50;98.90;;;;;;5053222;28;20028;-64
2022/08/20 01:48:41;;;;;;;11.10;4.15;;;21.50;98.90;;;;;;5053049;28;20497;-63
2022/08/20 01:51:16;;;;;;;14.32;4.18;;;21.50;98.90;;;;;;5047363;28;20544;-63
2022/08/20 01:53:49;;;;;;;13.65;4.75;;;21.40;99.00;;;;;;5032912;28;20037;-63
2022/08/20 01:56:17;;;;;;;;;;;21.40;99.00;;;;;;5033648;28;20524;-63
2022/08/20 01:58:48;;;;;;;11.00;4.15;;;21.40;98.90;;;;;;5032998;28;19913;-64
2022/08/20 02:01:31;;;;;;;15.93;4.45;;;21.40;99.00;;;;;;5038263;28;20029;-63
2022/08/20 02:03:58;;;;;;;17.48;4.28;;;21.30;99.00;;;;;;5052851;28;20021;-62
2022/08/20 02:06:25;;;;;;;10.65;5.15;;;21.30;99.00;;;;;;5051624;28;20377;-63
2022/08/20 02:08:59;;;;;;;11.43;4.03;;;21.30;98.90;;;;;;5052795;28;20025;-62
2022/08/20 02:11:27;;;;;;;18.02;4.72;;;21.30;99.00;;;;;;5045905;28;20501;-63
2022/08/20 02:13:54;;;;;;;12.30;3.80;;;21.30;99.00;;;;;;5032992;28;20025;-62
2022/08/20 02:16:28;;;;;;;11.50;4.18;;;21.20;99.00;;;;;;5033297;28;20045;-63
2022/08/20 02:18:57;;;;;;;11.77;3.65;;;21.20;99.20;;;;;;5032701;28;20034;-63
2022/08/20 02:21:26;;;;;;;12.00;4.35;;;21.20;99.10;;;;;;5038755;28;20120;-63
2022/08/20 02:23:51;;;;;;;11.45;4.25;;;21.20;99.10;;;;;;5052679;28;20056;-63
2022/08/20 02:26:18;;;;;;;18.48;4.72;;;21.20;99.00;;;;;;5052880;28;20052;-63
2022/08/20 02:28:47;;;;;;;10.88;3.83;;;21.20;98.90;;;;;;5052821;28;20029;-63
2022/08/20 02:31:13;;;;;;;10.05;3.60;;;21.20;99.00;;;;;;5047924;28;20026;-63
2022/08/20 02:33:38;;;;;;;13.48;4.05;;;21.20;99.00;;;;;;5032443;28;20032;-63
2022/08/20 02:36:05;;;;;;;14.75;4.40;;;21.20;99.00;;;;;;5032916;28;20026;-63
2022/08/20 02:38:31;;;;;;;11.27;3.80;;;21.10;98.90;;;;;;5041906;28;20490;-63
2022/08/20 02:40:57;;;;;;;14.63;3.70;;;21.10;98.90;;;;;;5052481;28;20115;-62
2022/08/20 02:43:22;;;;;;;10.48;3.90;;;21.00;99.00;;;;;;5052543;28;20497;-63
2022/08/20 02:45:48;;;;;;;14.55;3.95;;;21.10;98.90;;;;;;5052480;28;20025;-63
2022/08/20 02:48:19;;;;;;;11.02;3.80;;;21.00;99.00;;;;;;5046890;28;20382;-62
2022/08/20 02:50:47;;;;;;;13.55;3.80;;;21.00;98.90;;;;;;5032586;28;20473;-63
2022/08/20 02:53:14;;;;;;;12.18;3.88;;;21.00;98.90;;;;;;5032651;28;20060;-63
2022/08/20 02:55:39;;;;;;;11.73;4.20;;;20.90;98.90;;;;;;5032906;28;20022;-63
2022/08/20 02:58:05;;;;;;;13.38;3.85;;;21.00;99.00;;;;;;5035328;28;20033;-62
2022/08/20 03:00:31;;;;;;;9.77;3.80;;;20.90;99.00;;;;;;5051900;28;20107;-63
2022/08/20 03:02:57;;;;;;;9.30;3.80;;;20.90;98.90;;;;;;5054377;28;20389;-62
2022/08/20 03:05:22;;;;;;;15.43;3.97;;;20.90;98.90;;;;;;5056200;28;20478;-64
2022/08/20 03:07:52;;;;;;;15.32;4.13;;;20.90;98.90;;;;;;5055192;28;20394;-63
2022/08/20 03:10:31;;;;;;;11.35;3.67;;;20.90;99.00;;;;;;5053990;28;20028;-62
2022/08/20 03:12:58;;;;;;;12.70;3.92;;;20.80;99.00;;;;;;5056146;28;20024;-64
2022/08/20 03:15:24;;;;;;;14.75;4.18;;;20.80;99.00;;;;;;5055873;28;20466;-63
2022/08/20 03:17:49;;;;;;;13.77;4.20;;;20.80;98.90;;;;;;5055737;28;20112;-63
2022/08/20 03:20:15;;;;;;;13.32;4.03;;;20.80;98.80;;;;;;5038074;28;20022;-63
2022/08/20 03:22:41;;;;;;;14.77;4.00;;;20.80;99.00;;;;;;5036271;28;20471;-62
2022/08/20 03:25:07;;;;;;;13.80;4.15;;;20.80;98.80;;;;;;5035974;28;20025;-63
2022/08/20 03:27:33;;;;;;;16.70;3.72;;;20.80;98.80;;;;;;5034719;28;20029;-62
2022/08/20 03:29:58;;;;;;;12.68;4.60;;;20.70;98.90;;;;;;5049335;28;20021;-63
2022/08/20 03:32:24;;;;;;;14.52;3.88;;;20.70;98.90;;;;;;5055623;28;20115;-63
2022/08/20 03:34:50;;;;;;;11.82;4.22;;;20.70;98.90;;;;;;5055378;28;20017;-63
2022/08/20 03:37:16;;;;;;;9.65;3.55;;;20.70;98.80;;;;;;5055859;28;20473;-63
2022/08/20 03:39:41;;;;;;;13.18;3.60;;;20.70;99.00;;;;;;5043299;28;20111;-67
2022/08/20 03:42:07;;;;;;;14.05;4.20;;;20.70;98.90;;;;;;5041067;28;20033;-62
2022/08/20 03:44:33;;;;;;;14.25;3.83;;;20.60;98.90;;;;;;5055162;28;20056;-63
2022/08/20 03:46:59;;;;;;;17.15;4.63;;;20.60;98.80;;;;;;5055385;28;20025;-62
2022/08/20 03:49:24;;;;;;;10.35;4.22;;;20.60;98.90;;;;;;5055330;28;20470;-62
2022/08/20 03:51:50;;;;;;;14.75;4.18;;;20.60;98.90;;;;;;5052908;28;20025;-63
2022/08/20 03:54:16;;;;;;;14.57;4.38;;;20.50;98.80;;;;;;5035207;28;20521;-62
2022/08/20 03:56:42;;;;;;;13.35;4.18;;;20.50;98.80;;;;;;5035479;28;20026;-62
2022/08/20 03:59:07;;;;;;;12.90;4.43;;;20.50;98.90;;;;;;5034978;28;20100;-63
2022/08/20 04:01:33;;;;;;;14.65;4.50;;;20.50;98.90;;;;;;5035335;28;20055;-63
2022/08/20 04:03:59;;;;;;;15.07;4.63;;;20.50;98.80;;;;;;5052427;28;20025;-62
2022/08/20 04:06:27;;;;;;;13.15;4.20;;;20.50;98.80;;;;;;5055032;28;20025;-64
2022/08/20 04:08:54;;;;;;;14.52;3.97;;;20.50;98.80;;;;;;5055330;28;20067;-64
2022/08/20 04:11:20;;;;;;;15.93;4.28;;;20.50;98.70;;;;;;5055041;28;20083;-63
2022/08/20 04:13:45;;;;;;;10.82;3.65;;;20.50;98.80;;;;;;5037856;28;20025;-63
2022/08/20 04:16:11;;;;;;;16.73;4.30;;;20.50;98.80;;;;;;5034989;28;20375;-62
2022/08/20 04:18:36;;;;;;;17.63;4.57;;;20.50;98.80;;;;;;5033405;28;20115;-63
2022/08/20 04:21:04;;;;;;;16.02;5.00;;;20.50;98.80;;;;;;5034985;28;20026;-62
2022/08/20 04:23:30;;;;;;;13.20;4.35;;;20.40;98.80;;;;;;5047996;28;20025;-63
2022/08/20 04:25:56;;;;;;;17.52;5.03;;;20.40;98.80;;;;;;5054807;28;20108;-62
2022/08/20 04:28:26;;;;;;;10.02;3.70;;;20.40;98.80;;;;;;5054305;28;20452;-63
2022/08/20 04:30:52;;;;;;;18.38;5.03;;;20.40;98.70;;;;;;5054453;28;20028;-63
2022/08/20 04:33:19;;;;;;;20.02;5.00;;;20.30;98.80;;;;;;5043487;28;20026;-63
2022/08/20 04:35:45;;;;;;;16.10;4.95;;;20.30;98.80;;;;;;5033210;28;20394;-63
2022/08/20 04:38:16;;;;;;;18.75;5.05;;;20.30;98.80;;;;;;5034415;28;20554;-64
2022/08/20 04:40:56;;;;;;;16.02;4.90;;;20.30;98.80;;;;;;5034177;28;20064;-64
2022/08/20 04:43:34;;;;;;;13.43;4.47;;;20.30;98.80;;;;;;5043226;28;20041;-64
2022/08/20 04:46:04;;;;;;;13.55;4.43;;;20.30;98.80;;;;;;5034241;28;20528;-63
2022/08/20 04:48:31;;;;;;;18.85;4.80;;;20.30;98.80;;;;;;5034461;28;20558;-64
2022/08/20 04:50:58;;;;;;;14.32;4.93;;;20.30;98.80;;;;;;5034246;28;20021;-66
2022/08/20 04:53:26;;;;;;;12.93;5.22;;;20.20;98.90;;;;;;5034277;28;20100;-63
2022/08/20 04:55:53;;;;;;;13.32;4.63;;;20.20;98.90;;;;;;5034035;28;20039;-63
2022/08/20 04:58:26;;;;;;;12.98;4.85;;;20.20;98.80;;;;;;5034102;28;20375;-64
2022/08/20 05:00:58;;;;;;;14.73;4.88;;;20.20;98.80;;;;;;5035840;28;20024;-63
2022/08/20 05:03:25;;;;;;;16.13;5.50;;;20.20;98.90;;;;;;5042698;28;20099;-63
2022/08/20 05:05:51;;;;;;;17.25;5.15;;;20.20;98.90;;;;;;5032720;28;20025;-63
2022/08/20 05:08:18;;;;;;;11.73;4.53;;;20.20;98.80;;;;;;5031374;28;20041;-62
2022/08/20 05:10:44;;;;;;;17.80;5.90;;;20.20;98.80;;;;;;5035341;28;20025;-63
2022/08/20 05:13:10;;;;;;;16.02;5.22;;;20.20;98.90;;;;;;5052578;28;20074;-63
2022/08/20 05:15:37;;;;;;;13.15;4.63;;;20.10;98.90;;;;;;5053702;28;20106;-62
2022/08/20 05:18:06;;;;;;;19.38;6.25;;;20.20;98.90;;;;;;5044869;28;20032;-62
2022/08/20 05:20:38;;;;;;;15.95;5.65;;;20.20;99.00;;;;;;5035880;28;20033;-64
2022/08/20 05:23:04;;;;;;;10.50;3.47;;;20.20;99.00;;;;;;5041066;28;20027;-62
2022/08/20 05:25:30;;;;;;;9.40;3.00;;;20.40;99.30;;;;;;5047897;28;20025;-62
2022/08/20 05:28:04;;;;;;;15.77;4.40;;;20.70;99.10;;;;;;5041414;28;20541;-63
2022/08/20 05:30:32;;;;;;;17.58;4.63;;;20.90;98.50;;;;;;5036271;28;20021;-62
2022/08/20 05:33:02;;;;;;;16.83;4.53;;;21.00;98.10;;;;;;5040647;28;20053;-63
2022/08/20 05:35:29;;;;;;;13.23;4.38;;;21.10;97.80;;;;;;5042253;28;20561;-62
2022/08/20 05:37:54;;;;;;;17.80;4.38;;;21.20;97.60;;;;;;5041366;28;20036;-62
2022/08/20 05:40:21;;;;;;;17.02;4.50;;;21.20;97.50;;;;;;5038884;28;20025;-62
2022/08/20 05:42:47;;;;;;;16.05;4.47;;;21.20;97.30;;;;;;5037582;28;20036;-63
2022/08/20 05:45:15;;;;;;;14.10;4.93;;;21.30;97.20;;;;;;5054394;28;20033;-62
2022/08/20 05:47:41;;;;;;;17.70;5.00;;;21.30;97.10;;;;;;5046026;28;20037;-63
2022/08/20 05:50:08;;;;;;;10.93;4.90;;;21.30;97.10;;;;;;5055220;28;20024;-63
2022/08/20 05:52:34;;;;;;;15.32;4.38;;;21.30;97.00;;;;;;5044100;28;20021;-62
2022/08/20 05:54:59;;;;;;;14.60;5.35;;;21.30;96.90;;;;;;5031543;28;20520;-62
2022/08/20 05:57:25;;;;;;;17.75;4.95;;;21.30;96.90;;;;;;5040099;28;20386;-62
2022/08/20 05:59:51;;;;;;;16.02;4.90;;;21.30;96.90;;;;;;5037941;28;20113;-62
2022/08/20 06:05:01;;;;;;;16.90;5.68;;;21.40;97.00;;;;;;5046838;28;20477;-62
2022/08/20 06:07:27;;;;;;;16.52;4.63;;;21.40;97.00;;;;;;5045552;28;20037;-62
2022/08/20 06:09:52;;;;;;;15.73;4.90;;;21.40;96.90;;;;;;5039994;28;20036;-65
2022/08/20 06:12:18;;;;;;;14.80;5.00;;;21.40;96.90;;;;;;5048232;28;20028;-63
2022/08/20 06:14:46;;;;;;;12.18;5.75;;;21.40;96.90;;;;;;5048056;28;20461;-61
2022/08/20 06:17:17;;;;;;;14.35;6.45;;;21.40;97.00;;;;;;5047855;28;20104;-62
2022/08/20 06:19:45;;;;;;;15.82;5.00;;;21.40;97.20;;;;;;5049210;28;20033;-64
2022/08/20 06:22:12;;;;;;;16.98;4.55;;;21.40;97.20;;;;;;5041207;28;20528;-62
2022/08/20 06:24:38;;;;;;;11.07;3.90;;;21.40;97.30;;;;;;5041621;28;20025;-62
2022/08/20 06:27:04;;;;;;;10.02;3.63;;;21.40;97.20;;;;;;5048084;28;20029;-62
2022/08/20 06:29:34;;;;;;;14.82;4.63;;;21.50;97.30;;;;;;5034045;28;20030;-63
2022/08/20 06:32:00;;;;;;;12.02;4.32;;;21.50;97.40;;;;;;5040016;28;20108;-62
2022/08/20 06:34:27;;;;;;;13.85;5.68;;;21.50;97.40;;;;;;5045192;28;20486;-62
2022/08/20 06:36:56;;;;;;;15.52;4.10;;;21.50;97.50;;;;;;5036134;28;20663;-63
2022/08/20 06:39:23;;;;;;;13.20;3.90;;;21.50;97.50;;;;;;5048835;28;20049;-63
2022/08/20 06:41:50;;;;;;;11.25;3.53;;;21.50;97.60;;;;;;5049742;28;20471;-67
2022/08/20 06:44:17;;;;;;;14.30;3.42;;;21.50;97.50;;;;;;5039355;28;20116;-64
2022/08/20 06:46:44;;;;;;;16.83;5.65;;;21.60;97.60;;;;;;5037561;28;20112;-62
2022/08/20 06:49:10;;;;;;;15.30;4.70;;;21.60;97.70;;;;;;5026604;28;20037;-64
2022/08/20 06:51:36;;;;;;;20.65;5.65;;;21.60;97.70;;;;;;5029555;28;20024;-70
2022/08/20 06:54:04;;;;;;;19.58;7.32;;;21.60;97.90;;;;;;5049493;28;20055;-63
2022/08/20 06:56:30;;;;;;;19.00;8.15;;;21.70;98.60;;;;;;5042203;28;20033;-65
2022/08/20 06:58:55;;;;;;;12.93;7.50;;;21.70;98.80;;;;;;5036956;28;20021;-62
2022/08/20 07:01:21;;;;;;;14.60;6.07;;;21.70;98.70;;;;;;5035993;28;20034;-63
2022/08/20 07:03:48;;;;;;;16.90;4.80;;;21.80;98.60;;;;;;5038816;28;20052;-63
2022/08/20 07:06:15;;;;;;;13.82;5.30;;;21.80;98.20;;;;;;5055494;28;20025;-70
2022/08/20 07:08:42;;;;;;;9.60;3.97;;;21.80;98.10;;;;;;5049773;28;20120;-62
2022/08/20 07:11:09;;;;;;;15.80;5.07;;;21.80;97.90;;;;;;5043127;28;20025;-62
2022/08/20 07:13:36;;;;;;;13.73;6.18;;;21.80;98.00;;;;;;5045768;28;20029;-63
2022/08/20 07:16:04;;;;;;;15.73;7.47;;;21.90;98.30;;;;;;5026564;28;20029;-62
2022/08/20 07:18:29;;;;;;;14.23;7.57;;;21.90;98.80;;;;;;5017070;28;20123;-66
2022/08/20 07:20:56;;;;;;;13.82;6.78;;;22.00;98.90;;;;;;5032609;28;20077;-66
2022/08/20 07:23:23;;;;;;;16.92;6.68;;;22.00;98.90;;;;;;5044907;28;20171;-79
2022/08/20 07:25:49;;;;;;;14.63;4.85;;;22.00;99.10;;;;;;5041764;28;20486;-64
2022/08/20 07:28:18;;;;;;;12.55;3.58;;;22.00;98.60;;;;;;5045183;28;20042;-64
2022/08/20 07:33:30;;;;;;;11.65;3.90;;;22.10;98.10;;;;;;5041473;28;20090;-64
2022/08/20 07:35:57;;;;;;;11.43;3.78;;;22.20;98.10;;;;;;5037312;28;20032;-64
2022/08/20 07:38:24;;;;;;;11.27;3.33;;;22.20;97.90;;;;;;5041222;28;20083;-64
2022/08/20 07:40:58;;;;;;;9.65;2.97;;;22.20;97.80;;;;;;5049267;28;20163;-64
2022/08/20 07:43:24;;;;;;;14.43;4.30;;;22.20;97.80;;;;;;5037165;28;20025;-64
2022/08/20 07:45:54;;;;;;;11.02;4.30;;;22.30;97.80;;;;;;5047047;28;20106;-66
2022/08/20 07:48:21;;;;;;;9.68;3.67;;;22.30;97.90;;;;;;5038030;28;20029;-69
2022/08/20 07:50:48;;;;;;;8.80;4.35;;;22.30;97.90;;;;;;5041232;28;20442;-64
2022/08/20 07:53:15;;;;;;;13.13;4.28;;;22.40;98.10;;;;;;5052121;28;20025;-64
2022/08/20 07:55:41;;;;;;;9.50;4.88;;;22.40;97.80;;;;;;5044888;28;20499;-69
2022/08/20 07:58:11;;;;;;;13.25;5.32;;;22.40;97.90;;;;;;5056813;28;20151;-66
2022/08/20 08:00:38;;;;;;;12.35;5.30;;;22.50;98.00;;;;;;5038961;28;20028;-64
2022/08/20 08:03:04;;;;;;;11.50;4.50;;;22.60;97.90;;;;;;5041352;28;20132;-65
2022/08/20 08:05:32;;;;;;;11.15;4.30;;;22.60;97.50;;;;;;5045887;28;20024;-65
2022/08/20 08:07:58;;;;;;;10.80;4.22;;;22.60;97.50;;;;;;5038718;28;20521;-65
2022/08/20 08:10:24;;;;;;;11.30;4.50;;;22.70;97.30;;;;;;5020810;28;20324;-62
2022/08/20 08:12:54;;;;;;;18.67;4.53;;;22.70;97.10;;;;;;5049929;28;20021;-67
2022/08/20 08:15:26;;;;;;;10.57;3.97;;;22.70;96.80;;;;;;5045112;28;20028;-63
2022/08/20 08:17:55;;;;;;;12.55;4.40;;;22.90;96.90;;;;;;5036522;28;20364;-71
2022/08/20 08:20:22;;;;;;;10.82;4.05;;;22.90;96.70;;;;;;5046066;28;20062;-65
2022/08/20 08:22:48;;;;;;;13.50;4.10;;;22.90;96.60;;;;;;5053063;28;20021;-64
2022/08/20 08:25:15;;;;;;;11.93;4.70;;;23.00;96.50;;;;;;5047986;28;20644;-65
2022/08/20 08:27:41;;;;;;;11.43;4.78;;;23.00;96.00;;;;;;5037714;28;20504;-64
2022/08/20 08:30:08;;;;;;;13.25;4.88;;;23.00;95.40;;;;;;5043711;28;20104;-67
2022/08/20 08:32:35;;;;;;;9.85;4.47;;;23.00;94.90;;;;;;5044831;28;20104;-65
2022/08/20 08:35:07;;;;;;;12.45;4.72;;;23.10;94.70;;;;;;5038603;28;20026;-64
2022/08/20 08:37:33;;;;;;;12.63;5.63;;;23.10;93.80;;;;;;5041426;28;20033;-65
2022/08/20 08:40:00;;;;;;;11.93;4.68;;;23.10;93.60;;;;;;5042173;28;20500;-63
2022/08/20 08:42:35;;;;;;;16.60;5.28;;;23.20;93.40;;;;;;5041167;28;20021;-64
2022/08/20 08:45:03;;;;;;;11.50;5.60;;;23.20;93.00;;;;;;5042476;28;20027;-68
2022/08/20 08:47:34;;;;;;;12.10;6.18;;;23.20;93.00;;;;;;5042913;28;20111;-72
2022/08/20 08:50:01;;;;;;;14.55;6.82;;;23.20;92.70;;;;;;5038103;28;20128;-67
2022/08/20 08:52:30;;;;;;;16.42;7.68;;;23.20;92.10;;;;;;5048570;28;20052;-71
2022/08/20 08:55:00;;;;;;;17.85;6.72;;;23.30;91.60;;;;;;5040214;28;20103;-65
2022/08/20 08:57:27;;;;;;;19.27;8.00;;;23.20;91.60;;;;;;5037778;28;20032;-64
2022/08/20 09:00:09;;;;;;;16.00;6.60;;;23.30;91.20;;;;;;5038464;28;20056;-65
2022/08/20 09:02:37;;;;;;;16.90;6.07;;;23.30;91.10;;;;;;5036907;28;20052;-66
2022/08/20 09:05:13;;;;;;;16.08;4.85;;;23.40;90.90;;;;;;5037816;28;20525;-65
2022/08/20 09:07:42;;;;;;;12.90;4.20;;;23.30;90.80;;;;;;5039535;28;20048;-69
2022/08/20 09:10:08;;;;;;;9.90;4.70;;;23.40;90.20;;;;;;5039337;28;20017;-64
2022/08/20 09:12:34;;;;;;;13.85;4.82;;;23.40;90.60;;;;;;5032698;28;20475;-69
2022/08/20 09:15:00;;;;;;;15.07;4.60;;;23.40;90.50;;;;;;5032651;28;20033;-64
2022/08/20 09:17:25;;;;;;;12.15;4.65;;;23.40;90.50;;;;;;5044026;28;20029;-65
2022/08/20 09:19:51;;;;;;;15.10;4.03;;;23.40;90.60;;;;;;5039765;28;20029;-66
2022/08/20 09:22:20;;;;;;;12.63;4.72;;;23.50;90.60;;;;;;5042926;28;20136;-70
2022/08/20 09:24:46;;;;;;;10.07;3.72;;;23.50;90.70;;;;;;5041986;28;20025;-64
2022/08/20 09:27:12;;;;;;;11.73;3.50;;;23.50;90.90;;;;;;5043615;28;20044;-63
2022/08/20 09:29:38;;;;;;;8.43;2.97;;;23.60;91.00;;;;;;5043445;28;20105;-65
2022/08/20 09:32:07;;;;;;;11.70;3.40;;;23.60;91.00;;;;;;5045651;28;20021;-67
2022/08/20 09:34:41;;;;;;;7.80;2.88;;;23.60;90.90;;;;;;5046787;28;20075;-66
2022/08/20 09:37:08;;;;;;;12.68;4.20;;;23.60;90.90;;;;;;5049323;28;20037;-64
2022/08/20 09:39:34;;;;;;;12.52;4.13;;;23.60;90.90;;;;;;5046799;28;20033;-65
2022/08/20 09:42:17;;;;;;;10.43;3.45;;;23.60;90.70;;;;;;5050795;28;20016;-64
2022/08/20 09:44:43;;;;;;;10.63;2.88;;;23.60;90.90;;;;;;5030512;28;20045;-63
2022/08/20 09:47:09;;;;;;;8.45;2.45;;;23.70;90.40;;;;;;5040912;28;20028;-63
2022/08/20 09:49:36;;;;;;;9.50;2.80;;;23.70;90.30;;;;;;5057210;28;20478;-67
2022/08/20 09:52:03;;;;;;;7.60;2.85;;;23.70;90.30;;;;;;5040448;28;20018;-65
2022/08/20 09:54:29;;;;;;;10.05;2.53;;;23.70;90.10;;;;;;5040654;28;20024;-66
2022/08/20 09:56:57;;;;;;;9.43;2.63;;;23.70;89.90;;;;;;5049916;28;20070;-66
2022/08/20 09:59:24;;;;;;;9.02;2.70;;;23.70;89.30;;;;;;5041868;28;20022;-64
2022/08/20 10:01:49;;;;;;;7.40;2.25;;;23.70;88.90;;;;;;5038356;28;20017;-67
2022/08/20 10:04:15;;;;;;;9.27;2.13;;;23.80;88.90;;;;;;5045681;28;20431;-71
2022/08/20 10:06:41;;;;;;;7.68;2.00;;;23.80;88.60;;;;;;5049524;28;20025;-64
2022/08/20 10:09:06;;;;;;;7.63;2.45;;;23.80;88.10;;;;;;5039180;28;20037;-70
2022/08/20 10:11:32;;;;;;;7.88;1.98;;;23.80;87.80;;;;;;5035471;28;20113;-64
2022/08/20 10:13:58;;;;;;;9.00;1.90;;;23.80;87.40;;;;;;5036187;28;20025;-65
2022/08/20 10:16:23;;;;;;;9.45;2.25;;;23.80;87.90;;;;;;5035709;28;20035;-64
2022/08/20 10:18:49;;;;;;;11.70;1.95;;;23.80;87.30;;;;;;5037931;28;20056;-66
2022/08/20 10:21:15;;;;;;;7.13;2.10;;;23.80;86.80;;;;;;5039396;28;20021;-68
2022/08/20 10:23:41;;;;;;;6.20;2.08;;;23.80;87.30;;;;;;5040520;28;20443;-63
2022/08/20 10:26:09;;;;;;;7.68;2.30;;;23.90;87.30;;;;;;5038310;28;20107;-64
2022/08/20 10:28:35;;;;;;;7.80;1.73;;;23.80;86.70;;;;;;5038906;28;20402;-64
2022/08/20 10:31:01;;;;;;;8.48;2.03;;;23.90;85.00;;;;;;5033260;28;20025;-63
2022/08/20 10:33:26;;;;;;;7.57;2.28;;;23.90;83.10;;;;;;5033046;28;20401;-64
2022/08/20 10:35:52;;;;;;;7.60;2.10;;;23.80;81.80;;;;;;5039213;28;20407;-64
2022/08/20 10:38:17;;;;;;;6.18;1.85;;;23.80;81.20;;;;;;5038970;28;20115;-64
2022/08/20 10:40:43;;;;;;;11.30;2.30;;;23.80;81.00;;;;;;5039026;28;20025;-64
2022/08/20 10:43:09;;;;;;;9.57;2.50;;;23.80;81.00;;;;;;5038245;28;20056;-69
2022/08/20 10:45:34;;;;;;;10.07;2.00;;;23.80;80.60;;;;;;5034890;28;20482;-65
2022/08/20 10:48:02;;;;;;;8.18;2.22;;;23.90;80.30;;;;;;5039877;28;20510;-66
2022/08/20 10:50:28;;;;;;;8.13;2.38;;;23.90;80.70;;;;;;5041464;28;20025;-64
2022/08/20 10:52:53;;;;;;;8.88;2.13;;;23.90;80.60;;;;;;5040201;28;20428;-63
2022/08/20 10:55:19;;;;;;;10.50;2.72;;;24.00;81.00;;;;;;5042781;28;20029;-63
2022/08/20 10:57:45;;;;;;;11.27;2.30;;;24.00;81.40;;;;;;5045078;28;20029;-64
2022/08/20 11:00:13;;;;;;;7.82;2.10;;;24.00;81.50;;;;;;5049582;28;20426;-63
2022/08/20 11:02:39;;;;;;;15.13;2.88;;;24.00;82.30;;;;;;5046494;28;20029;-64
2022/08/20 11:05:06;;;;;;;7.25;2.42;;;24.00;82.70;;;;;;5038530;28;20083;-63
2022/08/20 11:07:34;;;;;;;7.35;3.10;;;24.00;82.90;;;;;;5043851;28;20174;-68
2022/08/20 11:10:00;;;;;;;10.82;3.15;;;24.10;83.20;;;;;;5046277;28;20041;-64
2022/08/20 11:12:26;;;;;;;8.25;2.97;;;24.10;83.50;;;;;;5037932;28;20068;-68
2022/08/20 11:14:53;;;;;;;11.18;3.33;;;24.10;83.70;;;;;;5033685;28;20029;-66
2022/08/20 11:17:27;;;;;;;6.97;2.83;;;24.10;83.70;;;;;;5035668;28;20037;-68
2022/08/20 11:19:54;;;;;;;11.60;3.28;;;24.10;84.00;;;;;;5037816;28;20086;-71
2022/08/20 11:22:20;;;;;;;8.43;2.38;;;24.20;83.90;;;;;;5051952;28;20049;-63
2022/08/20 11:24:46;;;;;;;8.98;2.40;;;24.20;83.30;;;;;;5037523;28;20017;-63
2022/08/20 11:27:22;;;;;;;10.68;2.70;;;24.20;83.40;;;;;;5053300;28;20048;-64
2022/08/20 11:29:48;;;;;;;9.05;2.58;;;24.30;83.40;;;;;;5040123;28;20033;-69
2022/08/20 11:32:14;;;;;;;7.90;2.50;;;24.30;83.50;;;;;;5047077;28;20026;-67
2022/08/20 11:34:40;;;;;;;15.10;3.75;;;24.30;83.90;;;;;;5037661;28;20052;-69
2022/08/20 11:37:05;;;;;;;12.38;3.65;;;24.30;84.30;;;;;;5041803;28;20030;-63
2022/08/20 11:39:31;;;;;;;8.35;2.75;;;24.30;83.40;;;;;;5038978;28;20382;-72
2022/08/20 11:41:56;;;;;;;8.27;2.90;;;24.30;83.50;;;;;;5041266;28;20025;-64
2022/08/20 11:44:22;;;;;;;8.32;2.63;;;24.30;83.00;;;;;;5036189;28;20083;-63
2022/08/20 11:46:48;;;;;;;7.97;2.47;;;24.30;83.30;;;;;;5042975;28;20377;-64
2022/08/20 11:49:13;;;;;;;11.40;3.22;;;24.30;83.80;;;;;;5049172;28;20037;-64
2022/08/20 11:51:39;;;;;;;11.73;3.03;;;24.40;82.70;;;;;;5045258;28;20407;-64
2022/08/20 11:54:05;;;;;;;10.68;2.70;;;24.40;81.80;;;;;;5045554;28;20031;-63
2022/08/20 11:56:31;;;;;;;6.05;2.03;;;24.40;81.70;;;;;;5047943;28;20088;-63
2022/08/20 11:58:57;;;;;;;7.68;2.38;;;24.40;81.20;;;;;;5042132;28;20047;-63
2022/08/20 12:01:22;;;;;;;7.43;2.20;;;24.40;81.00;;;;;;5038062;28;20026;-63
2022/08/20 12:03:48;;;;;;;5.18;2.00;;;24.40;79.50;;;;;;5038959;28;20066;-63
2022/08/20 12:06:14;;;;;;;5.80;1.75;;;24.40;79.60;;;;;;5040287;28;20033;-62
2022/08/20 12:08:39;;;;;;;8.60;1.45;;;24.40;77.20;;;;;;5045143;28;20499;-63
2022/08/20 12:11:05;;;;;;;5.22;1.38;;;24.40;76.90;;;;;;5040556;28;20069;-63
2022/08/20 12:13:34;;;;;;;6.97;1.63;;;24.40;77.30;;;;;;5036062;28;20104;-67
2022/08/20 12:16:01;;;;;;;4.85;1.80;;;24.40;78.10;;;;;;5036959;28;20498;-63
2022/08/20 12:18:26;;;;;;;6.22;1.48;;;24.40;77.60;;;;;;5040583;28;20033;-63
2022/08/20 12:20:52;;;;;;;8.68;1.80;;;24.50;77.80;;;;;;5038594;28;20379;-63
2022/08/20 12:23:18;;;;;;;9.13;1.83;;;24.40;77.70;;;;;;5036657;28;20025;-66
2022/08/20 12:25:43;;;;;;;5.60;1.55;;;24.40;77.90;;;;;;5046791;28;20121;-63
2022/08/20 12:28:12;;;;;;;4.70;1.48;;;24.50;78.50;;;;;;5042115;28;20076;-64
2022/08/20 12:30:38;;;;;;;10.35;1.70;;;24.50;78.50;;;;;;5043902;28;20024;-68
2022/08/20 12:33:03;;;;;;;4.03;1.52;;;24.50;78.40;;;;;;5041908;28;20034;-64
2022/08/20 12:35:30;;;;;;;4.28;1.40;;;24.60;78.20;;;;;;5047365;28;20025;-68
2022/08/20 12:37:55;;;;;;;4.18;1.50;;;24.50;77.50;;;;;;5051672;28;20090;-63
2022/08/20 12:40:24;;;;;;;7.32;1.77;;;24.60;76.50;;;;;;5039141;28;20033;-63
2022/08/20 12:42:49;;;;;;;3.10;1.40;;;24.60;75.40;;;;;;5034675;28;20080;-64
2022/08/20 12:45:16;;;;;;;4.90;1.70;;;24.60;75.80;;;;;;5036617;28;20032;-64
2022/08/20 12:47:45;;;;;;;4.90;1.98;;;24.60;75.70;;;;;;5042352;28;20037;-65
2022/08/20 12:50:17;;;;;;;3.65;1.60;;;24.60;75.40;;;;;;5039584;28;20424;-64